Time;durP1;ratioP1;P1;durP2;ratioP2;P2;SDS_P1;SDS_P2;PMS_P1;PMS_P2;Temp;Humidity;BMP_temperature;BMP_pressure;BME280_temperature;BME280_humidity;BME280_pressure;Samples;Min_cycle;Max_cycle;Signal;HPM_P1;HPM_P2
2022/12/06 00:01:07;;;;;;;;;;;4.10;76.90;;;;;;4977762;28;20323;-78
2022/12/06 00:03:34;;;;;;;;;;;4.10;77.00;;;;;;4995880;28;20425;-77
2022/12/06 00:06:07;;;;;;;;;;;4.10;77.20;;;;;;4979078;28;19890;-78
2022/12/06 00:08:33;;;;;;;;;;;4.10;77.50;;;;;;4963690;28;19906;-79
2022/12/06 00:11:02;;;;;;;;;;;4.10;77.80;;;;;;4958317;28;20289;-78
2022/12/06 00:13:28;;;;;;;;;;;4.10;78.00;;;;;;4957938;28;20331;-78
2022/12/06 00:15:54;;;;;;;;;;;4.00;78.10;;;;;;4958120;28;19918;-77
2022/12/06 00:18:19;;;;;;;;;;;4.00;78.40;;;;;;4958023;28;19924;-79
2022/12/06 00:20:45;;;;;;;;;;;4.00;78.50;;;;;;4958010;28;20406;-78
2022/12/06 00:23:10;;;;;;;;;;;3.90;78.60;;;;;;4956912;28;19910;-79
2022/12/06 00:25:36;;;;;;;;;;;3.90;78.80;;;;;;4957804;28;19906;-79
2022/12/06 00:28:01;;;;;;;;;;;3.90;78.80;;;;;;4957797;28;19906;-79
2022/12/06 00:30:27;;;;;;;;;;;3.90;79.00;;;;;;4957995;28;19906;-78
2022/12/06 00:32:53;;;;;;;;;;;3.90;79.40;;;;;;4975117;28;19960;-79
2022/12/06 00:35:19;;;;;;;;;;;3.90;79.40;;;;;;4957698;28;20381;-81
2022/12/06 00:37:44;;;;;;;;;;;3.90;79.30;;;;;;4957713;28;19910;-79
2022/12/06 00:40:10;;;;;;;;;;;3.90;79.30;;;;;;4957630;28;19910;-79
2022/12/06 00:42:36;;;;;;;;;;;3.80;79.30;;;;;;4941403;28;19964;-80
2022/12/06 00:45:02;;;;;;;;;;;3.80;79.70;;;;;;4957683;28;19928;-79
2022/12/06 00:47:27;;;;;;;;;;;3.70;80.70;;;;;;4957607;28;19906;-79
2022/12/06 00:49:53;;;;;;;;;;;3.60;80.10;;;;;;4957656;28;19972;-79
2022/12/06 00:52:18;;;;;;;;;;;3.60;80.20;;;;;;4957503;28;19974;-79
2022/12/06 00:54:43;;;;;;;;;;;3.60;80.30;;;;;;4974499;28;19906;-79
2022/12/06 00:57:09;;;;;;;;;;;3.50;80.30;;;;;;4956835;28;20290;-77
2022/12/06 00:59:36;;;;;;;;;;;3.50;80.40;;;;;;4942135;28;19922;-79
2022/12/06 01:02:01;;;;;;;;;;;3.40;80.50;;;;;;4957455;28;20256;-78
2022/12/06 01:04:27;;;;;;;;;;;3.40;80.80;;;;;;4957320;28;19965;-80
2022/12/06 01:06:53;;;;;;;;;;;3.30;81.20;;;;;;4957293;28;19937;-78
2022/12/06 01:09:19;;;;;;;;;;;3.30;81.30;;;;;;4957312;28;19961;-78
2022/12/06 01:11:44;;;;;;;;;;;3.20;81.40;;;;;;4957278;28;19906;-78
2022/12/06 01:14:09;;;;;;;;;;;3.20;81.50;;;;;;4957590;28;19945;-78
2022/12/06 01:16:35;;;;;;;;;;;3.10;81.60;;;;;;4958795;28;19921;-78
2022/12/06 01:19:03;;;;;;;;;;;3.10;81.70;;;;;;4958385;28;19906;-78
2022/12/06 01:21:28;;;;;;;;;;;3.10;81.80;;;;;;4957261;28;19960;-79
2022/12/06 01:23:55;;;;;;;;;;;3.00;81.90;;;;;;4957223;28;19906;-79
2022/12/06 01:26:23;;;;;;;;;;;3.00;82.10;;;;;;4957059;28;20450;-78
2022/12/06 01:28:48;;;;;;;;;;;2.90;82.20;;;;;;4974298;28;19906;-79
2022/12/06 01:31:14;;;;;;;;;;;2.90;82.20;;;;;;4974393;28;20326;-79
2022/12/06 01:33:40;;;;;;;;;;;2.80;83.00;;;;;;4958471;28;20405;-78
2022/12/06 01:36:06;;;;;;;;;;;2.80;82.20;;;;;;4960834;28;19914;-78
2022/12/06 01:38:32;;;;;;;;;;;2.70;82.30;;;;;;4960861;28;20294;-77
2022/12/06 01:40:57;;;;;;;;;;;2.70;82.00;;;;;;4960836;28;19997;-78
2022/12/06 01:43:42;;;;;;;;;;;2.60;81.70;;;;;;4960867;28;19912;-78
2022/12/06 01:46:26;;;;;;;;;;;2.60;81.70;;;;;;4977634;28;19910;-79
2022/12/06 01:48:53;;;;;;;;;;;2.60;81.40;;;;;;4960584;28;20000;-78
2022/12/06 01:51:19;;;;;;;;;;;2.50;81.30;;;;;;4960650;28;20000;-79
2022/12/06 01:53:46;;;;;;;;;;;2.40;81.10;;;;;;4960740;28;19945;-79
2022/12/06 01:56:12;;;;;;;;;;;2.40;81.30;;;;;;4977874;28;19914;-78
2022/12/06 01:58:39;;;;;;;;;;;2.30;81.40;;;;;;4960496;28;19918;-79
2022/12/06 02:01:05;;;;;;;;;;;2.30;81.60;;;;;;4960714;28;19917;-78
2022/12/06 02:03:33;;;;;;;;;;;2.30;81.60;;;;;;4960420;28;19914;-79
2022/12/06 02:06:02;;;;;;;;;;;2.20;81.40;;;;;;4960304;28;19913;-79
2022/12/06 02:08:28;;;;;;;;;;;2.10;81.50;;;;;;4960217;28;19909;-78
2022/12/06 02:10:53;;;;;;;;;;;2.10;81.80;;;;;;4960517;28;19912;-78
2022/12/06 02:13:20;;;;;;;;;;;2.10;81.80;;;;;;4960188;28;20381;-78
2022/12/06 02:16:02;;;;;;;;;;;2.00;81.60;;;;;;4959914;28;20008;-79
2022/12/06 02:18:31;;;;;;;;;;;2.00;81.80;;;;;;4960088;28;19906;-79
2022/12/06 02:21:12;;;;;;;;;;;2.00;81.80;;;;;;4960086;28;19906;-80
2022/12/06 02:23:56;;;;;;;;;;;2.00;82.10;;;;;;4959778;28;19906;-79
2022/12/06 02:26:36;;;;;;;;;;;2.00;82.80;;;;;;4977297;28;20325;-78
2022/12/06 02:29:20;;;;;;;;;;;1.90;81.90;;;;;;4959821;28;19956;-79
2022/12/06 02:31:57;;;;;;;;;;;1.80;82.00;;;;;;4977318;28;19929;-79
2022/12/06 02:34:29;;;;;;;;;;;1.80;82.30;;;;;;4977147;28;19906;-78
2022/12/06 02:37:00;;;;;;;;;;;1.80;82.30;;;;;;4971141;28;19914;-78
2022/12/06 02:39:33;;;;;;;;;;;1.80;82.20;;;;;;4977018;28;19909;-78
2022/12/06 02:42:22;;;;;;;;;;;1.80;82.10;;;;;;4977196;28;19996;-77
2022/12/06 02:44:52;;;;;;;;;;;1.90;82.00;;;;;;4945937;28;19977;-77
2022/12/06 02:47:18;;;;;;;;;;;1.90;81.80;;;;;;4959651;28;19981;-77
2022/12/06 02:49:48;;;;;;;;;;;1.80;81.60;;;;;;4959360;28;19906;-77
2022/12/06 02:52:14;;;;;;;;;;;1.80;81.60;;;;;;4959554;28;19913;-78
2022/12/06 02:54:42;;;;;;;;;;;1.80;81.80;;;;;;4959402;28;19913;-79
2022/12/06 02:57:08;;;;;;;;;;;1.80;82.60;;;;;;4959111;28;19952;-78
2022/12/06 02:59:33;;;;;;;;;;;1.90;81.40;;;;;;4959454;28;19977;-77
2022/12/06 03:02:01;;;;;;;;;;;1.80;81.40;;;;;;4959273;28;20342;-78
2022/12/06 03:04:49;;;;;;;;;;;1.80;81.70;;;;;;4959632;28;19913;-79
2022/12/06 03:07:35;;;;;;;;;;;1.80;82.00;;;;;;4959350;28;20374;-78
2022/12/06 03:10:19;;;;;;;;;;;1.80;82.20;;;;;;4959558;28;19944;-78
2022/12/06 03:13:03;;;;;;;;;;;1.70;82.40;;;;;;4959004;28;19909;-78
2022/12/06 03:15:32;;;;;;;;;;;1.70;82.60;;;;;;4976454;28;20017;-78
2022/12/06 03:18:17;;;;;;;;;;;1.70;82.70;;;;;;4959385;28;19906;-80
2022/12/06 03:20:50;;;;;;;;;;;1.70;82.50;;;;;;4958716;28;19906;-78
2022/12/06 03:23:19;;;;;;;;;;;1.60;82.70;;;;;;4958943;28;20274;-80
2022/12/06 03:25:45;;;;;;;;;;;1.60;82.90;;;;;;4959104;28;19912;-78
2022/12/06 03:28:13;;;;;;;;;;;1.50;83.10;;;;;;4958901;28;20410;-78
2022/12/06 03:30:40;;;;;;;;;;;1.50;83.10;;;;;;4959080;28;19964;-78
2022/12/06 03:33:06;;;;;;;;;;;1.60;83.10;;;;;;4959323;28;19906;-80
2022/12/06 03:35:32;;;;;;;;;;;1.60;83.10;;;;;;4963726;28;19972;-80
2022/12/06 03:38:03;;;;;;;;;;;1.60;83.00;;;;;;4987759;28;19898;-80
2022/12/06 03:40:30;;;;;;;;;;;1.60;82.90;;;;;;5000190;28;19894;-79
2022/12/06 03:42:56;;;;;;;;;;;1.70;83.10;;;;;;4996746;28;19898;-80
2022/12/06 03:45:25;;;;;;;;;;;1.70;82.90;;;;;;4958489;28;19906;-81
2022/12/06 03:47:59;;;;;;;;;;;1.70;82.80;;;;;;4958466;28;19964;-80
2022/12/06 03:50:28;;;;;;;;;;;1.70;82.60;;;;;;4975890;28;19906;-81
2022/12/06 03:52:54;;;;;;;;;;;1.70;82.70;;;;;;4958671;28;19941;-80
2022/12/06 03:55:20;;;;;;;;;;;1.80;82.50;;;;;;4958385;28;20350;-81
2022/12/06 03:57:45;;;;;;;;;;;1.80;82.40;;;;;;4956904;28;19925;-81
2022/12/06 04:00:11;;;;;;;;;;;1.80;82.30;;;;;;4958440;28;19906;-81
2022/12/06 04:02:37;;;;;;;;;;;1.80;82.40;;;;;;4974762;28;20390;-80
2022/12/06 04:05:02;;;;;;;;;;;1.80;82.40;;;;;;4960244;28;19906;-81
2022/12/06 04:07:28;;;;;;;;;;;1.80;82.40;;;;;;4961768;28;19906;-81
2022/12/06 04:10:01;;;;;;;;;;;1.90;82.50;;;;;;4982508;28;19894;-79
2022/12/06 04:15:16;;;;;;;;;;;1.90;82.00;;;;;;4998098;28;19909;-80
2022/12/06 04:20:28;;;;;;;;;;;1.90;81.70;;;;;;4975693;28;20282;-81
2022/12/06 04:23:03;;;;;;;;;;;1.90;81.70;;;;;;4957995;28;20354;-81
2022/12/06 04:25:33;;;;;;;;;;;2.00;81.60;;;;;;4958134;28;20370;-80
2022/12/06 04:38:56;;;;;;;;;;;2.10;81.30;;;;;;4985684;28;19907;-78
2022/12/06 04:44:05;;;;;;;;;;;2.20;81.00;;;;;;4996638;28;19912;-76
2022/12/06 04:46:31;;;;;;;;;;;2.20;80.90;;;;;;4978202;28;19890;-79
2022/12/06 04:48:57;;;;;;;;;;;2.30;81.00;;;;;;4986604;28;19917;-79
2022/12/06 04:51:22;;;;;;;;;;;2.40;81.00;;;;;;4957825;28;20255;-79
2022/12/06 04:53:48;;;;;;;;;;;2.50;80.90;;;;;;4957521;28;19906;-78
2022/12/06 04:56:14;;;;;;;;;;;2.50;80.70;;;;;;4957348;28;19977;-78
2022/12/06 04:58:40;;;;;;;;;;;2.50;79.80;;;;;;4957332;28;20377;-77
2022/12/06 05:01:05;;;;;;;;;;;2.50;79.80;;;;;;4957425;28;19913;-78
2022/12/06 05:03:30;;;;;;;;;;;2.50;79.30;;;;;;4957489;28;20001;-78
2022/12/06 05:05:56;;;;;;;;;;;2.60;78.90;;;;;;4957457;28;19905;-78
2022/12/06 05:08:22;;;;;;;;;;;2.60;78.60;;;;;;4959523;28;19941;-79
2022/12/06 05:10:47;;;;;;;;;;;2.60;78.50;;;;;;4964042;28;19914;-79
2022/12/06 05:13:13;;;;;;;;;;;2.60;78.60;;;;;;4963530;28;19906;-78
2022/12/06 05:15:39;;;;;;;;;;;2.50;78.70;;;;;;4963854;28;19914;-78
2022/12/06 05:18:05;;;;;;;;;;;2.50;78.80;;;;;;4964047;28;19906;-78
2022/12/06 05:20:30;;;;;;;;;;;2.40;78.90;;;;;;4981057;28;20285;-78
2022/12/06 05:22:56;;;;;;;;;;;2.50;79.30;;;;;;4963723;28;19952;-79
2022/12/06 05:25:21;;;;;;;;;;;2.40;79.20;;;;;;4963753;28;19913;-79
2022/12/06 05:27:47;;;;;;;;;;;2.40;79.10;;;;;;4964177;28;20251;-78
2022/12/06 05:30:12;;;;;;;;;;;2.40;79.30;;;;;;4964106;28;19906;-78
2022/12/06 05:32:38;;;;;;;;;;;2.40;79.50;;;;;;4963584;28;19914;-78
2022/12/06 05:35:05;;;;;;;;;;;2.40;79.60;;;;;;4965669;28;20069;-78
2022/12/06 05:37:31;;;;;;;;;;;2.50;79.50;;;;;;4964666;28;20366;-78
2022/12/06 05:39:57;;;;;;;;;;;2.50;79.60;;;;;;4963537;28;19906;-78
2022/12/06 05:42:22;;;;;;;;;;;2.60;79.70;;;;;;4963368;28;19913;-78
2022/12/06 05:44:47;;;;;;;;;;;2.60;79.80;;;;;;4963487;28;19961;-77
2022/12/06 05:47:13;;;;;;;;;;;2.60;79.80;;;;;;4963543;28;20274;-79
2022/12/06 05:49:38;;;;;;;;;;;2.70;79.80;;;;;;4965877;28;19913;-78
2022/12/06 05:52:04;;;;;;;;;;;2.60;79.60;;;;;;4966079;28;19906;-79
2022/12/06 05:54:31;;;;;;;;;;;2.60;79.60;;;;;;4980906;28;20341;-80
2022/12/06 05:56:57;;;;;;;;;;;2.60;79.70;;;;;;4964904;28;19914;-79
2022/12/06 05:59:22;;;;;;;;;;;2.60;79.40;;;;;;4963086;28;20275;-77
2022/12/06 06:01:48;;;;;;;;;;;2.60;79.40;;;;;;4963293;28;20012;-77
2022/12/06 06:04:14;;;;;;;;;;;2.60;79.30;;;;;;4963340;28;19913;-77
2022/12/06 06:06:39;;;;;;;;;;;2.60;79.00;;;;;;4963193;28;19906;-78
2022/12/06 06:09:05;;;;;;;;;;;2.60;78.80;;;;;;4962921;28;19906;-78
2022/12/06 06:11:30;;;;;;;;;;;2.60;78.70;;;;;;4963030;28;19914;-78
2022/12/06 06:13:56;;;;;;;;;;;2.60;78.80;;;;;;4962859;28;19906;-78
2022/12/06 06:16:21;;;;;;;;;;;2.60;78.90;;;;;;4963007;28;20359;-79
2022/12/06 06:18:48;;;;;;;;;;;2.70;78.90;;;;;;4946989;28;19914;-80
2022/12/06 06:21:13;;;;;;;;;;;2.70;78.90;;;;;;4959370;28;19906;-79
2022/12/06 06:23:39;;;;;;;;;;;2.70;79.00;;;;;;4959976;28;19985;-80
2022/12/06 06:26:08;;;;;;;;;;;2.70;79.00;;;;;;4976868;28;19906;-79
2022/12/06 06:28:34;;;;;;;;;;;2.70;79.10;;;;;;4959190;28;20295;-77
2022/12/06 06:31:03;;;;;;;;;;;2.80;79.80;;;;;;4959486;28;19906;-78
2022/12/06 06:33:29;;;;;;;;;;;2.90;79.20;;;;;;4959909;28;19906;-77
2022/12/06 06:35:55;;;;;;;;;;;2.90;79.60;;;;;;4959995;28;19921;-78
2022/12/06 06:38:20;;;;;;;;;;;2.90;79.50;;;;;;4960484;28;19932;-78
2022/12/06 06:40:45;;;;;;;;;;;3.00;79.40;;;;;;4978032;28;19906;-78
2022/12/06 06:43:17;;;;;;;;;;;3.00;79.60;;;;;;4960921;28;19913;-78
2022/12/06 06:45:44;;;;;;;;;;;3.00;79.70;;;;;;4960780;28;19906;-80
2022/12/06 06:48:09;;;;;;;;;;;3.00;80.20;;;;;;4961066;28;20270;-78
2022/12/06 06:50:35;;;;;;;;;;;3.00;80.10;;;;;;4966420;28;19906;-78
2022/12/06 06:53:06;;;;;;;;;;;3.00;80.30;;;;;;4959975;28;19957;-81
2022/12/06 06:55:35;;;;;;;;;;;3.00;80.00;;;;;;4960018;28;19916;-79
2022/12/06 06:58:00;;;;;;;;;;;3.00;79.40;;;;;;4957463;29;19925;-77
2022/12/06 07:00:26;;;;;;;;;;;3.00;79.30;;;;;;4956214;29;19906;-80
2022/12/06 07:02:51;;;;;;;;;;;3.00;79.50;;;;;;4956758;29;19913;-78
2022/12/06 07:05:17;;;;;;;;;;;2.90;79.70;;;;;;4956765;29;20275;-78
2022/12/06 07:07:43;;;;;;;;;;;2.90;80.70;;;;;;4956389;29;19908;-77
2022/12/06 07:10:08;;;;;;;;;;;3.00;80.00;;;;;;4956732;29;19917;-79
2022/12/06 07:12:34;;;;;;;;;;;3.00;79.90;;;;;;4958027;29;19906;-78
2022/12/06 07:15:01;;;;;;;;;;;3.00;79.90;;;;;;4957733;29;20510;-80
2022/12/06 07:17:26;;;;;;;;;;;3.00;80.00;;;;;;4956205;29;19914;-79
2022/12/06 07:19:52;;;;;;;;;;;3.00;80.20;;;;;;4957209;29;19906;-79
2022/12/06 07:22:17;;;;;;;;;;;3.00;80.20;;;;;;4956566;29;19907;-79
2022/12/06 07:24:42;;;;;;;;;;;3.10;80.20;;;;;;4956265;29;19907;-77
2022/12/06 07:27:08;;;;;;;;;;;3.10;80.10;;;;;;4955367;29;19917;-77
2022/12/06 07:29:34;;;;;;;;;;;3.10;80.00;;;;;;4955530;29;19952;-77
2022/12/06 07:31:59;;;;;;;;;;;3.10;80.00;;;;;;4957034;28;20355;-77
2022/12/06 07:34:25;;;;;;;;;;;3.10;80.80;;;;;;4955156;29;20377;-77
2022/12/06 07:36:50;;;;;;;;;;;3.20;81.10;;;;;;4954753;29;20077;-77
2022/12/06 07:39:16;;;;;;;;;;;3.30;81.10;;;;;;4955132;29;19910;-77
2022/12/06 07:47:11;;;;;;;;;;;3.40;80.00;;;;;;4956708;29;19912;-78
2022/12/06 07:49:37;;;;;;;;;;;3.40;79.70;;;;;;4956453;29;20001;-78
2022/12/06 07:52:03;;;;;;;;;;;3.40;79.60;;;;;;4955309;29;19989;-78
2022/12/06 07:54:28;;;;;;;;;;;3.40;79.40;;;;;;4955285;29;19958;-78
2022/12/06 07:56:57;;;;;;;;;;;3.40;79.30;;;;;;4954846;29;19969;-78
2022/12/06 07:59:23;;;;;;;;;;;3.40;79.20;;;;;;4938976;29;19922;-78
2022/12/06 08:01:51;;;;;;;;;;;3.40;79.20;;;;;;4954572;29;19906;-78
2022/12/06 08:04:17;;;;;;;;;;;3.40;79.20;;;;;;4954732;29;20315;-77
2022/12/06 08:06:44;;;;;;;;;;;3.40;79.20;;;;;;4954792;29;19907;-78
2022/12/06 08:09:10;;;;;;;;;;;3.40;79.30;;;;;;4954886;29;20355;-78
2022/12/06 08:11:36;;;;;;;;;;;3.40;79.30;;;;;;4955937;29;19906;-78
2022/12/06 08:14:03;;;;;;;;;;;3.50;79.40;;;;;;4954349;29;19914;-78
2022/12/06 08:16:29;;;;;;;;;;;3.50;79.30;;;;;;4954602;29;19914;-78
2022/12/06 08:18:58;;;;;;;;;;;3.50;79.10;;;;;;4956000;29;20271;-78
2022/12/06 08:21:25;;;;;;;;;;;3.50;78.70;;;;;;4954861;29;19910;-78
2022/12/06 08:23:51;;;;;;;;;;;3.50;78.70;;;;;;4957488;29;19910;-78
2022/12/06 08:26:17;;;;;;;;;;;3.50;78.70;;;;;;4939131;29;19911;-78
2022/12/06 08:28:43;;;;;;;;;;;3.50;78.70;;;;;;4955554;29;19906;-77
2022/12/06 08:31:10;;;;;;;;;;;3.60;78.70;;;;;;4955500;29;19916;-80
2022/12/06 08:33:35;;;;;;;;;;;3.60;78.50;;;;;;4957361;29;19952;-77
2022/12/06 08:36:07;;;;;;;;;;;3.60;78.20;;;;;;4966068;29;20330;-78
2022/12/06 08:38:33;;;;;;;;;;;3.60;78.00;;;;;;4970862;29;19906;-79
2022/12/06 08:40:59;;;;;;;;;;;3.60;78.40;;;;;;4971029;29;19961;-78
2022/12/06 08:43:24;;;;;;;;;;;3.50;78.80;;;;;;4965078;28;19906;-78
2022/12/06 08:45:50;;;;;;;;;;;3.50;78.80;;;;;;4963101;29;19915;-78
2022/12/06 08:48:16;;;;;;;;;;;3.50;78.90;;;;;;4961361;29;19906;-77
2022/12/06 08:50:41;;;;;;;;;;;3.50;79.00;;;;;;4962577;29;20310;-78
2022/12/06 08:53:07;;;;;;;;;;;3.50;78.90;;;;;;4963112;29;19913;-77
2022/12/06 08:55:33;;;;;;;;;;;3.50;79.00;;;;;;4958396;29;20443;-77
2022/12/06 08:57:58;;;;;;;;;;;3.50;79.30;;;;;;4954749;29;20320;-77
2022/12/06 09:00:24;;;;;;;;;;;3.40;79.20;;;;;;4954006;29;19913;-77
2022/12/06 09:02:49;;;;;;;;;;;3.50;79.40;;;;;;4954548;29;19953;-78
2022/12/06 09:05:15;;;;;;;;;;;3.50;79.40;;;;;;4955386;29;19907;-77
2022/12/06 09:07:40;;;;;;;;;;;3.40;78.90;;;;;;4953666;29;19918;-77
2022/12/06 09:10:07;;;;;;;;;;;3.40;79.30;;;;;;4938021;29;19953;-77
2022/12/06 09:12:34;;;;;;;;;;;3.50;79.40;;;;;;4953808;29;19910;-76
2022/12/06 09:15:00;;;;;;;;;;;3.50;79.50;;;;;;4954441;29;19911;-75
2022/12/06 09:17:27;;;;;;;;;;;3.50;79.10;;;;;;4953703;29;19965;-77
2022/12/06 09:19:52;;;;;;;;;;;3.50;79.10;;;;;;4953828;29;19945;-77
2022/12/06 09:22:18;;;;;;;;;;;3.60;79.00;;;;;;4953931;29;20354;-77
2022/12/06 09:24:43;;;;;;;;;;;3.60;78.60;;;;;;4954265;29;19961;-77
2022/12/06 09:27:09;;;;;;;;;;;3.70;78.80;;;;;;4954903;29;19907;-77
2022/12/06 09:29:36;;;;;;;;;;;3.70;78.60;;;;;;4953374;29;19906;-77
2022/12/06 09:32:01;;;;;;;;;;;3.80;78.30;;;;;;4955409;29;19910;-77
2022/12/06 09:34:27;;;;;;;;;;;3.90;78.30;;;;;;4953778;29;19914;-77
2022/12/06 09:37:03;;;;;;;;;;;3.90;78.20;;;;;;4955035;29;19915;-77
2022/12/06 09:39:35;;;;;;;;;;;3.90;78.00;;;;;;4954991;29;19906;-77
2022/12/06 09:42:10;;;;;;;;;;;4.00;77.70;;;;;;4953754;29;19906;-78
2022/12/06 09:44:41;;;;;;;;;;;4.00;77.60;;;;;;4954005;29;19910;-78
2022/12/06 09:47:22;;;;;;;;;;;4.00;77.00;;;;;;4954148;29;19914;-79
2022/12/06 09:49:50;;;;;;;;;;;4.00;76.70;;;;;;4955163;29;19906;-78
2022/12/06 09:52:25;;;;;;;;;;;4.00;76.80;;;;;;4953906;29;19906;-78
2022/12/06 09:55:09;;;;;;;;;;;4.00;76.90;;;;;;4956683;28;19910;-77
2022/12/06 09:57:50;;;;;;;;;;;4.00;76.80;;;;;;4957327;29;20311;-78
2022/12/06 10:00:18;;;;;;;;;;;4.10;77.00;;;;;;4957288;29;20430;-78
2022/12/06 10:02:47;;;;;;;;;;;4.10;77.00;;;;;;4957143;29;20359;-78
2022/12/06 10:05:26;;;;;;;;;;;4.10;77.10;;;;;;4956886;29;19993;-78
2022/12/06 10:08:12;;;;;;;;;;;4.20;77.00;;;;;;4958423;29;19914;-77
2022/12/06 10:10:50;;;;;;;;;;;4.30;76.70;;;;;;4958889;29;19906;-77
2022/12/06 10:13:36;;;;;;;;;;;4.30;76.50;;;;;;4958334;29;19969;-76
2022/12/06 10:16:03;;;;;;;;;;;4.40;76.30;;;;;;4958369;29;19989;-77
2022/12/06 10:18:51;;;;;;;;;;;4.40;76.20;;;;;;4956706;29;19913;-77
2022/12/06 10:21:24;;;;;;;;;;;4.50;76.10;;;;;;4956489;29;19906;-76
2022/12/06 10:24:09;;;;;;;;;;;4.50;75.80;;;;;;4955818;29;20001;-76
2022/12/06 10:26:44;;;;;;;;;;;4.60;75.70;;;;;;4956281;29;19993;-76
2022/12/06 10:29:18;;;;;;;;;;;4.60;75.40;;;;;;4956225;29;19907;-76
2022/12/06 10:32:00;;;;;;;;;;;4.70;75.30;;;;;;4956534;29;19930;-78
2022/12/06 10:34:32;;;;;;;;;;;4.90;75.10;;;;;;4957690;29;20398;-78
2022/12/06 10:37:16;;;;;;;;;;;4.90;74.80;;;;;;4956417;29;19914;-78
2022/12/06 10:39:46;;;;;;;;;;;5.00;74.30;;;;;;4956553;29;20006;-78
2022/12/06 10:42:16;;;;;;;;;;;5.10;74.00;;;;;;4956349;29;19906;-78
2022/12/06 10:44:47;;;;;;;;;;;5.20;73.40;;;;;;4957492;29;19910;-79
2022/12/06 10:47:16;;;;;;;;;;;5.20;73.20;;;;;;4956270;29;19906;-76
2022/12/06 10:50:00;;;;;;;;;;;5.30;73.00;;;;;;4956188;29;19964;-79
2022/12/06 10:52:32;;;;;;;;;;;5.40;72.50;;;;;;4956274;29;19949;-76
2022/12/06 10:55:09;;;;;;;;;;;5.30;71.20;;;;;;4955979;29;19906;-77
2022/12/06 10:57:43;;;;;;;;;;;5.40;70.70;;;;;;4955675;29;20016;-76
2022/12/06 11:00:14;;;;;;;;;;;5.30;70.90;;;;;;4957467;29;19997;-76
2022/12/06 11:02:49;;;;;;;;;;;5.40;70.90;;;;;;4955794;29;19910;-77
2022/12/06 11:05:24;;;;;;;;;;;5.50;70.60;;;;;;4955369;29;19917;-77
2022/12/06 11:07:52;;;;;;;;;;;5.50;70.60;;;;;;4956543;28;19913;-77
2022/12/06 11:10:20;;;;;;;;;;;5.60;69.90;;;;;;4955986;29;19906;-78
2022/12/06 11:12:47;;;;;;;;;;;5.70;69.80;;;;;;4957148;29;19929;-77
2022/12/06 11:15:28;;;;;;;;;;;5.90;69.10;;;;;;4956014;29;19913;-77
2022/12/06 11:18:23;;;;;;;;;;;5.90;68.20;;;;;;4955475;29;19906;-77
2022/12/06 11:21:03;;;;;;;;;;;6.00;68.50;;;;;;4940248;28;19906;-79
2022/12/06 11:23:47;;;;;;;;;;;6.00;67.50;;;;;;4956240;29;19961;-77
2022/12/06 11:26:26;;;;;;;;;;;6.20;66.70;;;;;;4955154;29;19913;-81
2022/12/06 11:28:58;;;;;;;;;;;7.60;63.60;;;;;;4955356;29;20006;-79
2022/12/06 11:31:30;;;;;;;;;;;9.80;55.10;;;;;;4955325;29;20261;-77
2022/12/06 11:33:57;;;;;;;;;;;12.00;49.70;;;;;;4954899;29;20359;-78
2022/12/06 11:36:23;;;;;;;;;;;14.20;42.70;;;;;;4955017;29;20323;-78
2022/12/06 11:38:49;;;;;;;;;;;15.20;38.20;;;;;;4954992;29;19950;-79
2022/12/06 11:41:18;;;;;;;;;;;16.00;35.80;;;;;;4955277;29;19906;-78
2022/12/06 11:43:45;;;;;;;;;;;16.90;35.00;;;;;;4956126;29;19906;-78
2022/12/06 11:46:12;;;;;;;;;;;18.10;32.00;;;;;;4956184;29;19910;-77
2022/12/06 11:48:38;;;;;;;;;;;18.70;30.20;;;;;;4954642;29;19945;-79
2022/12/06 11:51:06;;;;;;;;;;;18.70;29.20;;;;;;4954649;29;19936;-80
2022/12/06 11:53:34;;;;;;;;;;;18.20;29.70;;;;;;4954929;29;19917;-77
2022/12/06 11:56:21;;;;;;;;;;;17.30;31.30;;;;;;4954737;29;19962;-81
2022/12/06 11:59:05;;;;;;;;;;;16.00;33.10;;;;;;4953233;29;20372;-78
2022/12/06 12:01:44;;;;;;;;;;;13.90;37.60;;;;;;4953957;29;19932;-79
2022/12/06 12:04:21;;;;;;;;;;;13.90;40.20;;;;;;4954574;29;19910;-79
2022/12/06 12:06:56;;;;;;;;;;;15.70;37.20;;;;;;4955930;29;19922;-81
2022/12/06 12:09:21;;;;;;;;;;;18.00;33.70;;;;;;4955403;29;19911;-78
2022/12/06 12:12:03;;;;;;;;;;;19.10;30.20;;;;;;4954560;29;20248;-79
2022/12/06 12:14:41;;;;;;;;;;;19.50;27.60;;;;;;4952190;29;19910;-78
2022/12/06 12:17:21;;;;;;;;;;;19.50;26.50;;;;;;4953184;28;19915;-78
2022/12/06 12:19:52;;;;;;;;;;;19.70;27.50;;;;;;4954645;29;19961;-78
2022/12/06 12:22:36;;;;;;;;;;;19.80;27.30;;;;;;4955742;29;20367;-78
2022/12/06 12:25:30;;;;;;;;;;;19.80;26.70;;;;;;4954997;29;20104;-78
2022/12/06 12:27:59;;;;;;;;;;;21.30;26.00;;;;;;4955466;29;20266;-78
2022/12/06 12:30:25;;;;;;;;;;;23.40;22.30;;;;;;4955211;29;19913;-79
2022/12/06 12:33:08;;;;;;;;;;;24.40;19.70;;;;;;4956271;29;19926;-79
2022/12/06 12:35:38;;;;;;;;;;;24.50;18.50;;;;;;4956230;29;19914;-78
2022/12/06 12:38:10;;;;;;;;;;;24.50;17.90;;;;;;4956009;29;19913;-79
2022/12/06 12:40:38;;;;;;;;;;;21.90;20.00;;;;;;4954275;29;19960;-78
2022/12/06 12:43:13;;;;;;;;;;;20.70;23.00;;;;;;4954050;29;19907;-78
2022/12/06 12:45:40;;;;;;;;;;;22.00;22.40;;;;;;4954405;29;19913;-81
2022/12/06 12:48:22;;;;;;;;;;;23.50;20.30;;;;;;4954399;29;19914;-78
2022/12/06 12:50:51;;;;;;;;;;;24.00;18.80;;;;;;4954166;29;19997;-77
2022/12/06 12:53:30;;;;;;;;;;;22.60;19.00;;;;;;4954140;29;19958;-77
2022/12/06 12:56:06;;;;;;;;;;;20.10;21.50;;;;;;4954825;29;19997;-79
2022/12/06 12:58:33;;;;;;;;;;;17.20;26.70;;;;;;4953759;29;19922;-79
2022/12/06 13:01:01;;;;;;;;;;;14.90;32.00;;;;;;4954083;29;19976;-77
2022/12/06 13:03:27;;;;;;;;;;;12.90;37.50;;;;;;4955414;29;20352;-77
2022/12/06 13:05:53;;;;;;;;;;;11.80;41.30;;;;;;4953581;29;19907;-78
2022/12/06 13:08:30;;;;;;;;;;;10.70;44.60;;;;;;4953537;29;20291;-77
2022/12/06 13:10:57;;;;;;;;;;;9.80;47.50;;;;;;4954017;29;19913;-77
2022/12/06 13:13:29;;;;;;;;;;;8.80;51.60;;;;;;4954021;29;19912;-77
2022/12/06 13:15:55;;;;;;;;;;;8.40;53.30;;;;;;4953807;29;20447;-77
2022/12/06 13:18:23;;;;;;;;;;;7.70;56.20;;;;;;4954139;29;19918;-78
2022/12/06 13:20:49;;;;;;;;;;;7.70;56.30;;;;;;4955121;29;19913;-78
2022/12/06 13:23:17;;;;;;;;;;;7.80;56.40;;;;;;4954102;29;19911;-77
2022/12/06 13:25:48;;;;;;;;;;;7.90;56.00;;;;;;4955083;29;19906;-76
2022/12/06 13:28:24;;;;;;;;;;;7.80;56.10;;;;;;4953914;29;20015;-80
2022/12/06 13:30:55;;;;;;;;;;;8.00;55.50;;;;;;4958278;28;19906;-77
2022/12/06 13:33:23;;;;;;;;;;;8.10;55.20;;;;;;4957096;29;19917;-78
2022/12/06 13:35:58;;;;;;;;;;;7.90;56.90;;;;;;5143881;23;19922;-77
2022/12/06 13:38:34;;;;;;;;;;;7.80;56.50;;;;;;4961305;28;19917;-78
2022/12/06 13:41:00;;;;;;;;;;;8.00;56.00;;;;;;4962784;28;19912;-77
2022/12/06 13:43:26;;;;;;;;;;;8.70;54.90;;;;;;4962726;28;19913;-78
2022/12/06 13:45:52;;;;;;;;;;;9.80;51.20;;;;;;4961825;28;19914;-77
2022/12/06 13:48:24;;;;;;;;;;;10.00;49.10;;;;;;4960620;28;19907;-76
2022/12/06 13:50:53;;;;;;;;;;;9.70;49.70;;;;;;4977778;28;20244;-77
2022/12/06 13:53:20;;;;;;;;;;;8.80;51.90;;;;;;4960481;28;19906;-79
2022/12/06 13:55:53;;;;;;;;;;;7.90;56.30;;;;;;4960274;28;19910;-77
2022/12/06 13:58:18;;;;;;;;;;;7.50;57.30;;;;;;4960227;28;19906;-77
2022/12/06 14:00:48;;;;;;;;;;;7.00;59.20;;;;;;4977715;28;20279;-76
2022/12/06 14:03:14;;;;;;;;;;;6.90;60.60;;;;;;4976694;28;20000;-77
2022/12/06 14:05:59;;;;;;;;;;;6.50;62.30;;;;;;4977651;28;19906;-77
2022/12/06 14:08:29;;;;;;;;;;;6.40;62.70;;;;;;4977394;28;20382;-78
2022/12/06 14:11:05;;;;;;;;;;;6.30;63.40;;;;;;4977448;28;20375;-77
2022/12/06 14:13:31;;;;;;;;;;;6.30;63.40;;;;;;4959840;28;19906;-78
2022/12/06 14:15:57;;;;;;;;;;;6.30;63.90;;;;;;4960186;28;19910;-76
2022/12/06 14:18:25;;;;;;;;;;;6.30;63.60;;;;;;4960495;28;19924;-77
2022/12/06 14:20:51;;;;;;;;;;;6.20;63.80;;;;;;4960830;28;19906;-77
2022/12/06 14:23:21;;;;;;;;;;;6.20;64.30;;;;;;4977439;28;19929;-78
2022/12/06 14:25:47;;;;;;;;;;;6.10;64.50;;;;;;4960438;28;19913;-79
2022/12/06 14:28:12;;;;;;;;;;;6.00;64.90;;;;;;4977821;28;19910;-77
2022/12/06 14:30:38;;;;;;;;;;;6.10;65.10;;;;;;4961045;28;20320;-78
2022/12/06 14:33:15;;;;;;;;;;;6.00;66.10;;;;;;4979163;28;20024;-79
2022/12/06 14:35:47;;;;;;;;;;;5.90;66.60;;;;;;4959667;28;20008;-77
2022/12/06 14:38:24;;;;;;;;;;;6.00;66.00;;;;;;4959844;28;19906;-78
2022/12/06 14:43:34;;;;;;;;;;;6.00;65.70;;;;;;4977349;28;19953;-77
2022/12/06 14:46:05;;;;;;;;;;;6.00;65.70;;;;;;4959533;28;19910;-75
2022/12/06 14:51:24;;;;;;;;;;;5.90;65.80;;;;;;4937959;28;19917;-77
2022/12/06 14:53:50;;;;;;;;;;;5.90;65.90;;;;;;4960138;28;20362;-76
2022/12/06 14:56:30;;;;;;;;;;;5.90;66.20;;;;;;4959614;28;19914;-78
2022/12/06 14:58:58;;;;;;;;;;;5.90;66.30;;;;;;4959442;28;19952;-77
2022/12/06 15:01:30;;;;;;;;;;;6.00;66.40;;;;;;4959841;28;20390;-77
2022/12/06 15:04:00;;;;;;;;;;;6.00;66.00;;;;;;4959596;28;19906;-76
2022/12/06 15:06:28;;;;;;;;;;;6.00;66.00;;;;;;4959962;28;20009;-77
2022/12/06 15:08:57;;;;;;;;;;;6.00;66.10;;;;;;4943732;28;19917;-79
2022/12/06 15:14:20;;;;;;;;;;;5.70;67.50;;;;;;4977061;28;20326;-77